sensor_id;sensor_type;location;lat;lon;timestamp;pressure;altitude;pressure_sealevel;temperature;humidity
63715;BME280;49858;48.956;9.076;2022-10-10T00:01:30;98820.56;;;13.29;100.00
63715;BME280;49858;48.956;9.076;2022-10-10T00:03:58;98826.69;;;13.19;100.00
63715;BME280;49858;48.956;9.076;2022-10-10T00:06:27;98830.19;;;13.16;100.00
63715;BME280;49858;48.956;9.076;2022-10-10T00:09:00;98824.91;;;13.07;100.00
63715;BME280;49858;48.956;9.076;2022-10-10T00:11:28;98822.06;;;12.77;100.00
63715;BME280;49858;48.956;9.076;2022-10-10T00:13:56;98819.41;;;12.84;100.00
63715;BME280;49858;48.956;9.076;2022-10-10T00:16:24;98820.47;;;12.76;100.00
63715;BME280;49858;48.956;9.076;2022-10-10T00:18:53;98817.81;;;12.83;100.00
63715;BME280;49858;48.956;9.076;2022-10-10T00:21:21;98824.56;;;12.63;100.00
63715;BME280;49858;48.956;9.076;2022-10-10T00:23:48;98829.84;;;12.71;100.00
63715;BME280;49858;48.956;9.076;2022-10-10T00:26:16;98823.84;;;12.66;100.00
63715;BME280;49858;48.956;9.076;2022-10-10T00:28:45;98824.16;;;12.41;100.00
63715;BME280;49858;48.956;9.076;2022-10-10T00:31:13;98830.63;;;12.49;100.00
63715;BME280;49858;48.956;9.076;2022-10-10T00:33:40;98822.53;;;12.60;100.00
63715;BME280;49858;48.956;9.076;2022-10-10T00:36:09;98822.22;;;12.65;100.00
63715;BME280;49858;48.956;9.076;2022-10-10T00:38:37;98820.00;;;12.74;100.00
63715;BME280;49858;48.956;9.076;2022-10-10T00:41:06;98812.41;;;12.90;100.00
63715;BME280;49858;48.956;9.076;2022-10-10T00:43:34;98816.47;;;12.96;100.00
63715;BME280;49858;48.956;9.076;2022-10-10T00:46:01;98815.50;;;13.12;100.00
63715;BME280;49858;48.956;9.076;2022-10-10T00:48:31;98813.78;;;13.23;100.00
63715;BME280;49858;48.956;9.076;2022-10-10T00:51:01;98805.47;;;13.23;100.00
63715;BME280;49858;48.956;9.076;2022-10-10T00:53:33;98817.81;;;13.29;100.00
63715;BME280;49858;48.956;9.076;2022-10-10T00:56:02;98812.75;;;13.35;100.00
63715;BME280;49858;48.956;9.076;2022-10-10T00:58:31;98806.56;;;13.41;100.00
63715;BME280;49858;48.956;9.076;2022-10-10T01:00:59;98809.38;;;13.22;100.00
63715;BME280;49858;48.956;9.076;2022-10-10T01:03:27;98812.53;;;13.47;100.00
63715;BME280;49858;48.956;9.076;2022-10-10T01:05:55;98807.91;;;13.54;100.00
63715;BME280;49858;48.956;9.076;2022-10-10T01:08:23;98804.72;;;13.52;100.00
63715;BME280;49858;48.956;9.076;2022-10-10T01:11:02;98798.66;;;13.70;100.00
63715;BME280;49858;48.956;9.076;2022-10-10T01:13:34;98793.41;;;13.61;100.00
63715;BME280;49858;48.956;9.076;2022-10-10T01:16:10;98794.94;;;13.59;100.00
63715;BME280;49858;48.956;9.076;2022-10-10T01:18:43;98797.19;;;13.79;100.00
63715;BME280;49858;48.956;9.076;2022-10-10T01:21:15;98788.38;;;13.70;100.00
63715;BME280;49858;48.956;9.076;2022-10-10T01:27:06;98801.50;;;14.07;100.00
63715;BME280;49858;48.956;9.076;2022-10-10T01:29:38;98793.03;;;14.30;100.00
63715;BME280;49858;48.956;9.076;2022-10-10T01:32:13;98792.59;;;14.24;100.00
63715;BME280;49858;48.956;9.076;2022-10-10T01:34:48;98792.53;;;14.17;100.00
63715;BME280;49858;48.956;9.076;2022-10-10T01:37:27;98792.09;;;14.15;100.00
63715;BME280;49858;48.956;9.076;2022-10-10T01:40:08;98799.09;;;14.05;100.00
63715;BME280;49858;48.956;9.076;2022-10-10T01:42:41;98800.50;;;13.92;100.00
63715;BME280;49858;48.956;9.076;2022-10-10T01:45:14;98792.34;;;13.73;100.00
63715;BME280;49858;48.956;9.076;2022-10-10T01:47:42;98797.00;;;13.95;100.00
63715;BME280;49858;48.956;9.076;2022-10-10T01:50:12;98787.13;;;13.94;100.00
63715;BME280;49858;48.956;9.076;2022-10-10T01:52:53;98789.59;;;14.06;100.00
63715;BME280;49858;48.956;9.076;2022-10-10T01:55:32;98785.06;;;14.25;100.00
63715;BME280;49858;48.956;9.076;2022-10-10T01:58:11;98790.03;;;14.09;100.00
63715;BME280;49858;48.956;9.076;2022-10-10T02:00:49;98783.50;;;14.24;100.00
63715;BME280;49858;48.956;9.076;2022-10-10T02:03:25;98789.53;;;14.33;100.00
63715;BME280;49858;48.956;9.076;2022-10-10T02:05:58;98788.00;;;14.39;100.00
63715;BME280;49858;48.956;9.076;2022-10-10T02:08:31;98777.72;;;14.36;100.00
63715;BME280;49858;48.956;9.076;2022-10-10T02:11:03;98785.16;;;14.32;100.00
63715;BME280;49858;48.956;9.076;2022-10-10T02:13:35;98775.66;;;14.29;100.00
63715;BME280;49858;48.956;9.076;2022-10-10T02:16:13;98783.94;;;14.26;100.00
63715;BME280;49858;48.956;9.076;2022-10-10T02:18:43;98775.00;;;14.43;100.00
63715;BME280;49858;48.956;9.076;2022-10-10T02:21:13;98777.94;;;14.57;100.00
63715;BME280;49858;48.956;9.076;2022-10-10T02:23:44;98773.81;;;14.41;100.00
63715;BME280;49858;48.956;9.076;2022-10-10T02:26:15;98775.63;;;14.26;100.00
63715;BME280;49858;48.956;9.076;2022-10-10T02:28:49;98773.78;;;14.03;100.00
63715;BME280;49858;48.956;9.076;2022-10-10T02:31:27;98775.19;;;13.57;100.00
63715;BME280;49858;48.956;9.076;2022-10-10T02:34:01;98775.31;;;13.37;100.00
63715;BME280;49858;48.956;9.076;2022-10-10T02:36:32;98767.44;;;13.39;100.00
63715;BME280;49858;48.956;9.076;2022-10-10T02:39:01;98778.38;;;13.32;100.00
63715;BME280;49858;48.956;9.076;2022-10-10T02:41:30;98780.22;;;13.51;100.00
63715;BME280;49858;48.956;9.076;2022-10-10T02:44:00;98771.66;;;13.60;100.00
63715;BME280;49858;48.956;9.076;2022-10-10T02:46:29;98771.38;;;13.68;100.00
63715;BME280;49858;48.956;9.076;2022-10-10T02:48:57;98771.22;;;13.58;100.00
63715;BME280;49858;48.956;9.076;2022-10-10T02:51:25;98777.28;;;13.37;100.00
63715;BME280;49858;48.956;9.076;2022-10-10T02:53:56;98767.41;;;13.13;100.00
63715;BME280;49858;48.956;9.076;2022-10-10T02:56:23;98766.25;;;13.14;100.00
63715;BME280;49858;48.956;9.076;2022-10-10T02:58:51;98768.25;;;13.17;100.00
63715;BME280;49858;48.956;9.076;2022-10-10T03:01:19;98767.41;;;13.13;100.00
63715;BME280;49858;48.956;9.076;2022-10-10T03:03:48;98770.19;;;13.13;100.00
63715;BME280;49858;48.956;9.076;2022-10-10T03:06:16;98776.09;;;12.88;100.00
63715;BME280;49858;48.956;9.076;2022-10-10T03:08:44;98770.22;;;12.67;100.00
63715;BME280;49858;48.956;9.076;2022-10-10T03:11:12;98778.38;;;12.60;100.00
63715;BME280;49858;48.956;9.076;2022-10-10T03:13:39;98777.94;;;12.58;100.00
63715;BME280;49858;48.956;9.076;2022-10-10T03:16:07;98784.19;;;12.54;100.00
63715;BME280;49858;48.956;9.076;2022-10-10T03:18:35;98782.16;;;12.74;100.00
63715;BME280;49858;48.956;9.076;2022-10-10T03:21:04;98785.53;;;12.64;100.00
63715;BME280;49858;48.956;9.076;2022-10-10T03:23:32;98781.84;;;12.79;100.00
63715;BME280;49858;48.956;9.076;2022-10-10T03:26:04;98776.09;;;12.88;100.00
63715;BME280;49858;48.956;9.076;2022-10-10T03:28:31;98779.47;;;12.78;100.00
63715;BME280;49858;48.956;9.076;2022-10-10T03:30:59;98776.78;;;12.82;100.00
63715;BME280;49858;48.956;9.076;2022-10-10T03:33:27;98777.00;;;12.96;100.00
63715;BME280;49858;48.956;9.076;2022-10-10T03:35:55;98785.09;;;13.08;100.00
63715;BME280;49858;48.956;9.076;2022-10-10T03:38:24;98779.19;;;13.10;100.00
63715;BME280;49858;48.956;9.076;2022-10-10T03:40:51;98774.50;;;12.87;100.00
63715;BME280;49858;48.956;9.076;2022-10-10T03:43:19;98767.38;;;12.86;100.00
63715;BME280;49858;48.956;9.076;2022-10-10T03:45:47;98774.50;;;12.87;100.00
63715;BME280;49858;48.956;9.076;2022-10-10T03:48:15;98776.06;;;12.85;100.00
63715;BME280;49858;48.956;9.076;2022-10-10T03:50:43;98772.50;;;13.11;100.00
63715;BME280;49858;48.956;9.076;2022-10-10T03:53:10;98775.97;;;13.04;100.00
63715;BME280;49858;48.956;9.076;2022-10-10T03:55:40;98775.13;;;13.26;100.00
63715;BME280;49858;48.956;9.076;2022-10-10T03:58:09;98775.19;;;13.30;100.00
63715;BME280;49858;48.956;9.076;2022-10-10T04:00:37;98765.91;;;13.45;100.00
63715;BME280;49858;48.956;9.076;2022-10-10T04:03:05;98770.31;;;13.46;100.00
63715;BME280;49858;48.956;9.076;2022-10-10T04:05:33;98772.16;;;13.69;100.00
63715;BME280;49858;48.956;9.076;2022-10-10T04:08:02;98773.00;;;13.73;100.00
63715;BME280;49858;48.956;9.076;2022-10-10T04:10:30;98762.16;;;13.57;100.00
63715;BME280;49858;48.956;9.076;2022-10-10T04:12:59;98765.44;;;13.66;100.00
63715;BME280;49858;48.956;9.076;2022-10-10T04:15:27;98765.84;;;13.68;100.00
63715;BME280;49858;48.956;9.076;2022-10-10T04:17:56;98773.50;;;13.78;100.00
63715;BME280;49858;48.956;9.076;2022-10-10T04:20:23;98779.53;;;13.31;100.00
63715;BME280;49858;48.956;9.076;2022-10-10T04:22:51;98775.81;;;13.46;100.00
63715;BME280;49858;48.956;9.076;2022-10-10T04:25:19;98768.84;;;13.56;100.00
63715;BME280;49858;48.956;9.076;2022-10-10T04:27:47;98765.97;;;13.49;100.00
63715;BME280;49858;48.956;9.076;2022-10-10T04:30:17;98769.88;;;13.44;100.00
63715;BME280;49858;48.956;9.076;2022-10-10T04:32:45;98763.47;;;13.40;100.00
63715;BME280;49858;48.956;9.076;2022-10-10T04:35:12;98764.16;;;13.07;100.00
63715;BME280;49858;48.956;9.076;2022-10-10T04:37:40;98766.75;;;12.96;100.00
63715;BME280;49858;48.956;9.076;2022-10-10T04:40:09;98769.94;;;12.98;100.00
63715;BME280;49858;48.956;9.076;2022-10-10T04:42:37;98759.41;;;13.30;100.00
63715;BME280;49858;48.956;9.076;2022-10-10T04:45:05;98766.50;;;13.28;100.00
63715;BME280;49858;48.956;9.076;2022-10-10T04:47:34;98763.50;;;13.17;100.00
63715;BME280;49858;48.956;9.076;2022-10-10T04:50:02;98767.09;;;13.18;100.00
63715;BME280;49858;48.956;9.076;2022-10-10T04:52:30;98759.94;;;13.13;100.00
63715;BME280;49858;48.956;9.076;2022-10-10T04:54:58;98759.41;;;13.30;100.00
63715;BME280;49858;48.956;9.076;2022-10-10T04:57:25;98765.13;;;13.18;100.00
63715;BME280;49858;48.956;9.076;2022-10-10T04:59:53;98763.34;;;13.29;100.00
63715;BME280;49858;48.956;9.076;2022-10-10T05:02:21;98767.44;;;13.39;100.00
63715;BME280;49858;48.956;9.076;2022-10-10T05:04:50;98759.84;;;13.63;100.00
63715;BME280;49858;48.956;9.076;2022-10-10T05:07:18;98758.75;;;13.41;100.00
63715;BME280;49858;48.956;9.076;2022-10-10T05:09:46;98763.53;;;13.44;100.00
63715;BME280;49858;48.956;9.076;2022-10-10T05:12:13;98763.72;;;13.58;100.00
63715;BME280;49858;48.956;9.076;2022-10-10T05:14:41;98756.69;;;13.64;100.00
63715;BME280;49858;48.956;9.076;2022-10-10T05:17:13;98758.78;;;13.71;100.00
63715;BME280;49858;48.956;9.076;2022-10-10T05:19:41;98761.03;;;13.62;100.00
63715;BME280;49858;48.956;9.076;2022-10-10T05:22:10;98761.75;;;13.59;100.00
63715;BME280;49858;48.956;9.076;2022-10-10T05:24:38;98757.75;;;13.52;100.00
63715;BME280;49858;48.956;9.076;2022-10-10T05:27:06;98750.75;;;13.32;100.00
63715;BME280;49858;48.956;9.076;2022-10-10T05:29:34;98754.50;;;13.47;100.00
63715;BME280;49858;48.956;9.076;2022-10-10T05:32:01;98762.00;;;13.20;100.00
63715;BME280;49858;48.956;9.076;2022-10-10T05:34:35;98755.44;;;13.28;100.00
63715;BME280;49858;48.956;9.076;2022-10-10T05:37:03;98753.44;;;13.55;100.00
63715;BME280;49858;48.956;9.076;2022-10-10T05:39:32;98759.00;;;13.59;100.00
63715;BME280;49858;48.956;9.076;2022-10-10T05:42:00;98766.88;;;13.57;100.00
63715;BME280;49858;48.956;9.076;2022-10-10T05:44:28;98771.44;;;12.92;100.00
63715;BME280;49858;48.956;9.076;2022-10-10T05:46:56;98784.41;;;12.03;100.00
63715;BME280;49858;48.956;9.076;2022-10-10T05:49:23;98781.69;;;12.69;100.00
63715;BME280;49858;48.956;9.076;2022-10-10T05:51:51;98795.41;;;12.88;100.00
63715;BME280;49858;48.956;9.076;2022-10-10T05:54:19;98806.59;;;11.37;100.00
63715;BME280;49858;48.956;9.076;2022-10-10T05:56:49;98798.19;;;12.42;100.00
63715;BME280;49858;48.956;9.076;2022-10-10T05:59:16;98792.72;;;12.92;100.00
63715;BME280;49858;48.956;9.076;2022-10-10T06:01:44;98803.50;;;13.00;100.00
63715;BME280;49858;48.956;9.076;2022-10-10T06:04:12;98793.50;;;12.92;100.00
63715;BME280;49858;48.956;9.076;2022-10-10T06:06:39;98788.69;;;12.86;100.00
63715;BME280;49858;48.956;9.076;2022-10-10T06:09:07;98797.69;;;12.83;100.00
63715;BME280;49858;48.956;9.076;2022-10-10T06:11:35;98789.72;;;12.54;100.00
63715;BME280;49858;48.956;9.076;2022-10-10T06:14:04;98787.34;;;12.76;100.00
63715;BME280;49858;48.956;9.076;2022-10-10T06:16:32;98791.75;;;12.81;100.00
63715;BME280;49858;48.956;9.076;2022-10-10T06:19:00;98792.63;;;12.85;100.00
63715;BME280;49858;48.956;9.076;2022-10-10T06:21:28;98796.75;;;12.98;100.00
63715;BME280;49858;48.956;9.076;2022-10-10T06:23:56;98796.81;;;12.56;100.00
63715;BME280;49858;48.956;9.076;2022-10-10T06:26:23;98791.09;;;13.14;100.00
63715;BME280;49858;48.956;9.076;2022-10-10T06:28:51;98794.06;;;13.54;100.00
63715;BME280;49858;48.956;9.076;2022-10-10T06:31:20;98806.66;;;12.99;100.00
63715;BME280;49858;48.956;9.076;2022-10-10T06:33:48;98815.31;;;13.77;100.00
63715;BME280;49858;48.956;9.076;2022-10-10T06:36:18;98810.25;;;13.52;100.00
63715;BME280;49858;48.956;9.076;2022-10-10T06:38:46;98819.97;;;13.99;100.00
63715;BME280;49858;48.956;9.076;2022-10-10T06:41:14;98812.81;;;13.65;100.00
63715;BME280;49858;48.956;9.076;2022-10-10T06:43:41;98812.84;;;13.98;100.00
63715;BME280;49858;48.956;9.076;2022-10-10T06:46:09;98803.53;;;14.14;100.00
63715;BME280;49858;48.956;9.076;2022-10-10T06:48:38;98815.72;;;14.09;100.00
63715;BME280;49858;48.956;9.076;2022-10-10T06:51:07;98807.66;;;14.27;100.00
63715;BME280;49858;48.956;9.076;2022-10-10T06:53:35;98815.91;;;14.23;100.00
63715;BME280;49858;48.956;9.076;2022-10-10T06:56:03;98816.78;;;14.31;100.00
63715;BME280;49858;48.956;9.076;2022-10-10T06:58:32;98822.91;;;14.14;100.00
63715;BME280;49858;48.956;9.076;2022-10-10T07:01:01;98825.50;;;14.33;100.00
63715;BME280;49858;48.956;9.076;2022-10-10T07:03:30;98835.88;;;14.43;100.00
63715;BME280;49858;48.956;9.076;2022-10-10T07:06:00;98830.03;;;14.48;100.00
63715;BME280;49858;48.956;9.076;2022-10-10T07:08:28;98830.97;;;14.29;100.00
63715;BME280;49858;48.956;9.076;2022-10-10T07:10:56;98832.44;;;14.50;100.00
63715;BME280;49858;48.956;9.076;2022-10-10T07:13:24;98834.97;;;14.66;100.00
63715;BME280;49858;48.956;9.076;2022-10-10T07:15:51;98838.31;;;14.82;100.00
63715;BME280;49858;48.956;9.076;2022-10-10T07:18:20;98838.66;;;14.80;100.00
63715;BME280;49858;48.956;9.076;2022-10-10T07:20:48;98830.88;;;14.93;100.00
63715;BME280;49858;48.956;9.076;2022-10-10T07:23:19;98835.47;;;15.23;100.00
63715;BME280;49858;48.956;9.076;2022-10-10T07:25:47;98836.09;;;15.53;100.00
63715;BME280;49858;48.956;9.076;2022-10-10T07:28:15;98839.78;;;15.17;100.00
63715;BME280;49858;48.956;9.076;2022-10-10T07:30:44;98838.59;;;15.69;100.00
63715;BME280;49858;48.956;9.076;2022-10-10T07:33:13;98835.63;;;16.06;100.00
63715;BME280;49858;48.956;9.076;2022-10-10T07:35:41;98838.69;;;16.85;100.00
63715;BME280;49858;48.956;9.076;2022-10-10T07:38:10;98849.38;;;16.86;100.00
63715;BME280;49858;48.956;9.076;2022-10-10T07:40:40;98848.63;;;17.04;100.00
63715;BME280;49858;48.956;9.076;2022-10-10T07:43:07;98849.78;;;16.89;100.00
63715;BME280;49858;48.956;9.076;2022-10-10T07:45:38;98858.94;;;17.14;100.00
63715;BME280;49858;48.956;9.076;2022-10-10T07:48:06;98855.75;;;17.01;100.00
63715;BME280;49858;48.956;9.076;2022-10-10T07:50:34;98853.28;;;18.03;100.00
63715;BME280;49858;48.956;9.076;2022-10-10T07:53:02;98855.34;;;17.85;100.00
63715;BME280;49858;48.956;9.076;2022-10-10T07:55:29;98850.94;;;17.91;100.00
63715;BME280;49858;48.956;9.076;2022-10-10T07:57:58;98859.28;;;17.98;100.00
63715;BME280;49858;48.956;9.076;2022-10-10T08:00:29;98864.44;;;17.96;100.00
63715;BME280;49858;48.956;9.076;2022-10-10T08:02:56;98862.06;;;17.91;100.00
63715;BME280;49858;48.956;9.076;2022-10-10T08:05:24;98863.28;;;17.69;100.00
63715;BME280;49858;48.956;9.076;2022-10-10T08:07:52;98861.34;;;17.23;100.00
63715;BME280;49858;48.956;9.076;2022-10-10T08:10:20;98853.38;;;17.28;100.00
63715;BME280;49858;48.956;9.076;2022-10-10T08:12:48;98865.66;;;17.81;100.00
63715;BME280;49858;48.956;9.076;2022-10-10T08:15:17;98862.88;;;17.63;100.00
63715;BME280;49858;48.956;9.076;2022-10-10T08:17:45;98862.09;;;16.91;100.00
63715;BME280;49858;48.956;9.076;2022-10-10T08:20:13;98864.34;;;16.43;100.00
63715;BME280;49858;48.956;9.076;2022-10-10T08:22:41;98870.78;;;18.00;100.00
63715;BME280;49858;48.956;9.076;2022-10-10T08:25:09;98870.19;;;18.52;100.00
63715;BME280;49858;48.956;9.076;2022-10-10T08:27:40;98876.19;;;18.47;100.00
63715;BME280;49858;48.956;9.076;2022-10-10T08:30:08;98871.19;;;19.46;100.00
63715;BME280;49858;48.956;9.076;2022-10-10T08:32:38;98875.13;;;20.31;100.00
63715;BME280;49858;48.956;9.076;2022-10-10T08:35:06;98881.44;;;19.11;100.00
63715;BME280;49858;48.956;9.076;2022-10-10T08:37:34;98874.69;;;20.32;100.00
63715;BME280;49858;48.956;9.076;2022-10-10T08:40:03;98871.66;;;17.47;100.00
63715;BME280;49858;48.956;9.076;2022-10-10T08:42:35;98875.28;;;19.34;100.00
63715;BME280;49858;48.956;9.076;2022-10-10T08:45:20;98868.56;;;20.45;100.00
63715;BME280;49858;48.956;9.076;2022-10-10T08:47:53;98881.16;;;20.60;100.00
63715;BME280;49858;48.956;9.076;2022-10-10T08:50:23;98870.03;;;21.14;100.00
63715;BME280;49858;48.956;9.076;2022-10-10T08:52:56;98874.44;;;20.57;100.00
63715;BME280;49858;48.956;9.076;2022-10-10T08:55:27;98868.91;;;21.58;99.18
63715;BME280;49858;48.956;9.076;2022-10-10T08:58:05;98877.25;;;22.05;92.55
63715;BME280;49858;48.956;9.076;2022-10-10T09:00:39;98870.47;;;22.46;89.73
63715;BME280;49858;48.956;9.076;2022-10-10T09:03:18;98870.59;;;23.15;88.46
63715;BME280;49858;48.956;9.076;2022-10-10T09:05:59;98878.38;;;23.56;84.28
63715;BME280;49858;48.956;9.076;2022-10-10T09:08:38;98873.41;;;23.64;82.69
63715;BME280;49858;48.956;9.076;2022-10-10T09:11:21;98873.31;;;23.67;81.41
63715;BME280;49858;48.956;9.076;2022-10-10T09:14:02;98870.47;;;23.51;81.79
63715;BME280;49858;48.956;9.076;2022-10-10T09:16:38;98861.34;;;22.42;89.27
63715;BME280;49858;48.956;9.076;2022-10-10T09:19:20;98864.16;;;22.98;82.58
63715;BME280;49858;48.956;9.076;2022-10-10T09:21:56;98856.53;;;22.99;82.81
63715;BME280;49858;48.956;9.076;2022-10-10T09:24:30;98866.09;;;23.50;80.96
63715;BME280;49858;48.956;9.076;2022-10-10T09:27:03;98861.88;;;23.42;83.05
63715;BME280;49858;48.956;9.076;2022-10-10T09:29:33;98865.94;;;23.41;84.13
63715;BME280;49858;48.956;9.076;2022-10-10T09:32:10;98864.00;;;23.38;85.74
63715;BME280;49858;48.956;9.076;2022-10-10T09:34:44;98867.63;;;23.38;83.02
63715;BME280;49858;48.956;9.076;2022-10-10T09:37:18;98867.50;;;23.26;82.52
63715;BME280;49858;48.956;9.076;2022-10-10T09:40:13;98869.19;;;21.87;90.95
63715;BME280;49858;48.956;9.076;2022-10-10T09:42:44;98862.09;;;21.36;97.29
63715;BME280;49858;48.956;9.076;2022-10-10T09:45:16;98869.06;;;21.51;95.10
63715;BME280;49858;48.956;9.076;2022-10-10T09:47:46;98879.59;;;20.25;100.00
63715;BME280;49858;48.956;9.076;2022-10-10T09:50:16;98874.69;;;21.21;100.00
63715;BME280;49858;48.956;9.076;2022-10-10T09:52:44;98864.97;;;22.79;88.85
63715;BME280;49858;48.956;9.076;2022-10-10T09:55:24;98872.16;;;22.80;86.99
63715;BME280;49858;48.956;9.076;2022-10-10T09:57:54;98872.13;;;22.63;86.32
63715;BME280;49858;48.956;9.076;2022-10-10T10:00:32;98865.66;;;22.07;96.94
63715;BME280;49858;48.956;9.076;2022-10-10T10:03:12;98874.91;;;24.43;79.54
63715;BME280;49858;48.956;9.076;2022-10-10T10:05:44;98864.84;;;25.35;76.13
63715;BME280;49858;48.956;9.076;2022-10-10T10:08:21;98858.56;;;26.57;66.43
63715;BME280;49858;48.956;9.076;2022-10-10T10:10:50;98858.75;;;27.15;64.20
63715;BME280;49858;48.956;9.076;2022-10-10T10:13:26;98863.50;;;27.37;59.72
63715;BME280;49858;48.956;9.076;2022-10-10T10:16:04;98866.94;;;27.32;61.46
63715;BME280;49858;48.956;9.076;2022-10-10T10:18:37;98867.56;;;26.64;64.36
63715;BME280;49858;48.956;9.076;2022-10-10T10:21:14;98867.63;;;26.52;65.27
63715;BME280;49858;48.956;9.076;2022-10-10T10:23:49;98865.13;;;25.62;73.11
63715;BME280;49858;48.956;9.076;2022-10-10T10:26:19;98861.72;;;27.21;63.35
63715;BME280;49858;48.956;9.076;2022-10-10T10:28:49;98864.47;;;27.52;60.55
63715;BME280;49858;48.956;9.076;2022-10-10T10:31:25;98876.50;;;28.30;57.22
63715;BME280;49858;48.956;9.076;2022-10-10T10:34:06;98870.75;;;27.56;58.68
63715;BME280;49858;48.956;9.076;2022-10-10T10:36:50;98873.50;;;28.61;53.36
63715;BME280;49858;48.956;9.076;2022-10-10T10:39:31;98871.16;;;28.04;57.43
63715;BME280;49858;48.956;9.076;2022-10-10T10:42:11;98868.41;;;29.25;52.66
63715;BME280;49858;48.956;9.076;2022-10-10T10:44:48;98877.03;;;27.51;58.21
63715;BME280;49858;48.956;9.076;2022-10-10T10:47:32;98877.34;;;29.00;53.06
63715;BME280;49858;48.956;9.076;2022-10-10T10:50:23;98870.47;;;28.73;55.80
63715;BME280;49858;48.956;9.076;2022-10-10T10:52:59;98864.69;;;30.15;49.38
63715;BME280;49858;48.956;9.076;2022-10-10T10:55:36;98869.53;;;30.00;47.00
63715;BME280;49858;48.956;9.076;2022-10-10T10:58:28;98864.53;;;30.19;48.41
63715;BME280;49858;48.956;9.076;2022-10-10T11:01:25;98869.78;;;29.87;50.65
63715;BME280;49858;48.956;9.076;2022-10-10T11:04:26;98866.59;;;30.33;47.69
63715;BME280;49858;48.956;9.076;2022-10-10T11:07:21;98867.38;;;29.14;50.80
63715;BME280;49858;48.956;9.076;2022-10-10T11:09:54;98861.75;;;28.44;53.78
63715;BME280;49858;48.956;9.076;2022-10-10T11:12:40;98855.72;;;28.51;56.66
63715;BME280;49858;48.956;9.076;2022-10-10T11:15:14;98864.47;;;28.81;54.67
63715;BME280;49858;48.956;9.076;2022-10-10T11:17:47;98854.28;;;30.36;47.44
63715;BME280;49858;48.956;9.076;2022-10-10T11:20:24;98857.34;;;30.92;46.00
63715;BME280;49858;48.956;9.076;2022-10-10T11:22:58;98851.19;;;32.04;43.69
63715;BME280;49858;48.956;9.076;2022-10-10T11:25:41;98856.84;;;30.78;44.59
63715;BME280;49858;48.956;9.076;2022-10-10T11:28:12;98845.66;;;30.31;45.56
63715;BME280;49858;48.956;9.076;2022-10-10T11:30:45;98855.44;;;28.49;53.17
63715;BME280;49858;48.956;9.076;2022-10-10T11:33:17;98847.63;;;28.95;52.12
63715;BME280;49858;48.956;9.076;2022-10-10T11:35:52;98845.41;;;30.73;48.00
63715;BME280;49858;48.956;9.076;2022-10-10T11:38:24;98845.56;;;31.90;44.13
63715;BME280;49858;48.956;9.076;2022-10-10T11:40:58;98844.69;;;32.04;43.88
63715;BME280;49858;48.956;9.076;2022-10-10T11:43:33;98843.19;;;32.81;39.90
63715;BME280;49858;48.956;9.076;2022-10-10T11:46:11;98839.63;;;33.23;39.16
63715;BME280;49858;48.956;9.076;2022-10-10T11:48:47;98842.56;;;33.03;38.83
63715;BME280;49858;48.956;9.076;2022-10-10T11:51:29;98840.91;;;32.33;40.52
63715;BME280;49858;48.956;9.076;2022-10-10T11:54:03;98837.63;;;32.66;39.93
63715;BME280;49858;48.956;9.076;2022-10-10T11:56:38;98848.75;;;32.96;39.22
63715;BME280;49858;48.956;9.076;2022-10-10T11:59:13;98832.84;;;32.31;39.42
63715;BME280;49858;48.956;9.076;2022-10-10T12:01:46;98832.22;;;31.96;40.45
63715;BME280;49858;48.956;9.076;2022-10-10T12:04:15;98833.66;;;31.86;40.48
63715;BME280;49858;48.956;9.076;2022-10-10T12:06:46;98831.44;;;30.16;43.40
63715;BME280;49858;48.956;9.076;2022-10-10T12:09:20;98826.75;;;31.01;42.81
63715;BME280;49858;48.956;9.076;2022-10-10T12:11:58;98826.38;;;31.85;41.50
63715;BME280;49858;48.956;9.076;2022-10-10T12:14:27;98821.19;;;31.63;40.35
63715;BME280;49858;48.956;9.076;2022-10-10T12:16:57;98822.59;;;31.52;39.92
63715;BME280;49858;48.956;9.076;2022-10-10T12:19:28;98819.66;;;31.47;41.32
63715;BME280;49858;48.956;9.076;2022-10-10T12:21:58;98821.63;;;32.22;40.11
63715;BME280;49858;48.956;9.076;2022-10-10T12:24:31;98817.81;;;32.31;38.67
63715;BME280;49858;48.956;9.076;2022-10-10T12:27:28;98814.28;;;31.69;39.94
63715;BME280;49858;48.956;9.076;2022-10-10T12:30:25;98823.72;;;31.40;39.12
63715;BME280;49858;48.956;9.076;2022-10-10T12:32:53;98821.19;;;28.47;46.52
63715;BME280;49858;48.956;9.076;2022-10-10T12:35:33;98827.31;;;28.27;50.17
63715;BME280;49858;48.956;9.076;2022-10-10T12:38:16;98815.22;;;26.41;57.85
63715;BME280;49858;48.956;9.076;2022-10-10T12:41:13;98810.84;;;27.98;51.70
63715;BME280;49858;48.956;9.076;2022-10-10T12:43:48;98813.56;;;29.38;47.54
63715;BME280;49858;48.956;9.076;2022-10-10T12:46:25;98805.19;;;27.80;51.13
63715;BME280;49858;48.956;9.076;2022-10-10T12:49:04;98813.38;;;27.77;51.86
63715;BME280;49858;48.956;9.076;2022-10-10T12:51:57;98804.44;;;26.80;61.15
63715;BME280;49858;48.956;9.076;2022-10-10T12:54:29;98802.06;;;27.77;56.58
63715;BME280;49858;48.956;9.076;2022-10-10T12:57:08;98804.69;;;27.63;53.71
63715;BME280;49858;48.956;9.076;2022-10-10T12:59:41;98809.47;;;27.16;55.24
63715;BME280;49858;48.956;9.076;2022-10-10T13:02:15;98810.03;;;27.02;54.51
63715;BME280;49858;48.956;9.076;2022-10-10T13:04:46;98813.25;;;26.29;60.01
63715;BME280;49858;48.956;9.076;2022-10-10T13:07:18;98809.53;;;27.35;54.84
63715;BME280;49858;48.956;9.076;2022-10-10T13:09:48;98807.66;;;26.60;61.13
63715;BME280;49858;48.956;9.076;2022-10-10T13:12:25;98811.78;;;26.68;61.22
63715;BME280;49858;48.956;9.076;2022-10-10T13:14:55;98812.84;;;25.96;61.32
63715;BME280;49858;48.956;9.076;2022-10-10T13:17:26;98812.91;;;27.11;56.93
63715;BME280;49858;48.956;9.076;2022-10-10T13:19:59;98814.94;;;27.97;52.82